sensor_id;sensor_type;location;lat;lon;timestamp;pressure;altitude;pressure_sealevel;temperature;humidity
76050;BME280;64967;50.234;19.224;2023-03-14T00:00:12;96994.25;;;5.00;79.77
76050;BME280;64967;50.234;19.224;2023-03-14T00:02:40;96989.53;;;5.02;79.34
76050;BME280;64967;50.234;19.224;2023-03-14T00:05:08;96992.63;;;5.06;79.64
76050;BME280;64967;50.234;19.224;2023-03-14T00:07:37;96987.69;;;5.03;80.04
76050;BME280;64967;50.234;19.224;2023-03-14T00:10:07;96988.69;;;4.82;80.99
76050;BME280;64967;50.234;19.224;2023-03-14T00:12:35;96984.16;;;4.82;81.02
76050;BME280;64967;50.234;19.224;2023-03-14T00:15:02;96968.94;;;4.89;80.43
76050;BME280;64967;50.234;19.224;2023-03-14T00:17:31;96972.44;;;4.83;80.64
76050;BME280;64967;50.234;19.224;2023-03-14T00:19:58;96953.88;;;4.82;81.82
76050;BME280;64967;50.234;19.224;2023-03-14T00:22:31;96947.28;;;4.91;80.78
76050;BME280;64967;50.234;19.224;2023-03-14T00:24:58;96920.50;;;4.91;79.53
76050;BME280;64967;50.234;19.224;2023-03-14T00:27:25;96918.06;;;4.89;81.57
76050;BME280;64967;50.234;19.224;2023-03-14T00:29:54;96909.78;;;4.91;80.59
76050;BME280;64967;50.234;19.224;2023-03-14T00:32:22;96890.44;;;4.89;81.32
76050;BME280;64967;50.234;19.224;2023-03-14T00:34:49;96876.63;;;4.92;80.52
76050;BME280;64967;50.234;19.224;2023-03-14T00:37:16;96849.56;;;5.33;77.76
76050;BME280;64967;50.234;19.224;2023-03-14T00:39:43;96846.88;;;5.39;77.84
76050;BME280;64967;50.234;19.224;2023-03-14T00:42:10;96849.13;;;5.43;77.40
76050;BME280;64967;50.234;19.224;2023-03-14T00:44:37;96853.22;;;5.45;77.41
76050;BME280;64967;50.234;19.224;2023-03-14T00:47:04;96857.34;;;5.48;77.31
76050;BME280;64967;50.234;19.224;2023-03-14T00:49:33;96853.22;;;5.52;77.17
76050;BME280;64967;50.234;19.224;2023-03-14T00:52:00;96853.78;;;5.60;76.98
76050;BME280;64967;50.234;19.224;2023-03-14T00:54:28;96833.75;;;5.69;76.42
76050;BME280;64967;50.234;19.224;2023-03-14T00:56:55;96812.09;;;5.71;77.48
76050;BME280;64967;50.234;19.224;2023-03-14T00:59:22;96819.22;;;5.90;76.13
76050;BME280;64967;50.234;19.224;2023-03-14T01:01:49;96815.69;;;6.27;74.41
76050;BME280;64967;50.234;19.224;2023-03-14T01:04:16;96825.88;;;6.19;75.19
76050;BME280;64967;50.234;19.224;2023-03-14T01:06:44;96822.19;;;6.13;75.34
76050;BME280;64967;50.234;19.224;2023-03-14T01:09:21;96812.47;;;6.12;74.60
76050;BME280;64967;50.234;19.224;2023-03-14T01:12:07;96775.72;;;5.81;76.40
76050;BME280;64967;50.234;19.224;2023-03-14T01:14:51;96796.47;;;5.99;76.05
76050;BME280;64967;50.234;19.224;2023-03-14T01:17:34;96798.50;;;6.04;74.90
76050;BME280;64967;50.234;19.224;2023-03-14T01:20:30;96794.38;;;6.08;74.83
76050;BME280;64967;50.234;19.224;2023-03-14T01:23:08;96800.88;;;6.18;74.86
76050;BME280;64967;50.234;19.224;2023-03-14T01:25:40;96807.47;;;6.22;74.43
76050;BME280;64967;50.234;19.224;2023-03-14T01:28:07;96790.31;;;6.23;73.61
76050;BME280;64967;50.234;19.224;2023-03-14T01:30:34;96783.47;;;6.27;73.59
76050;BME280;64967;50.234;19.224;2023-03-14T01:33:01;96777.47;;;6.32;73.94
76050;BME280;64967;50.234;19.224;2023-03-14T01:35:29;96767.09;;;6.36;73.64
76050;BME280;64967;50.234;19.224;2023-03-14T01:37:56;96761.72;;;6.36;74.09
76050;BME280;64967;50.234;19.224;2023-03-14T01:40:23;96746.03;;;6.39;73.70
76050;BME280;64967;50.234;19.224;2023-03-14T01:42:57;96742.06;;;6.42;73.56
76050;BME280;64967;50.234;19.224;2023-03-14T01:48:37;96722.13;;;6.56;74.09
76050;BME280;64967;50.234;19.224;2023-03-14T01:51:10;96715.16;;;6.66;73.41
76050;BME280;64967;50.234;19.224;2023-03-14T01:53:39;96701.69;;;6.73;73.02
76050;BME280;64967;50.234;19.224;2023-03-14T01:56:08;96706.91;;;6.86;72.38
76050;BME280;64967;50.234;19.224;2023-03-14T01:58:37;96696.31;;;6.91;72.19
76050;BME280;64967;50.234;19.224;2023-03-14T02:01:06;96699.88;;;7.03;72.55
76050;BME280;64967;50.234;19.224;2023-03-14T02:03:42;96695.63;;;7.14;71.99
76050;BME280;64967;50.234;19.224;2023-03-14T02:06:14;96702.34;;;7.23;72.23
76050;BME280;64967;50.234;19.224;2023-03-14T02:08:50;96693.38;;;7.29;70.98
76050;BME280;64967;50.234;19.224;2023-03-14T02:11:35;96692.69;;;7.34;71.10
76050;BME280;64967;50.234;19.224;2023-03-14T02:14:35;96706.38;;;7.44;71.07
76050;BME280;64967;50.234;19.224;2023-03-14T02:17:16;96701.16;;;7.49;69.87
76050;BME280;64967;50.234;19.224;2023-03-14T02:22:55;96704.25;;;7.64;69.57
76050;BME280;64967;50.234;19.224;2023-03-14T02:25:51;96692.56;;;7.70;69.25
76050;BME280;64967;50.234;19.224;2023-03-14T02:28:22;96691.66;;;7.76;69.02
76050;BME280;64967;50.234;19.224;2023-03-14T02:30:50;96704.97;;;7.71;69.76
76050;BME280;64967;50.234;19.224;2023-03-14T02:33:19;96701.16;;;7.49;70.88
76050;BME280;64967;50.234;19.224;2023-03-14T02:35:59;96699.03;;;7.21;71.36
76050;BME280;64967;50.234;19.224;2023-03-14T02:38:53;96706.75;;;6.63;72.57
76050;BME280;64967;50.234;19.224;2023-03-14T02:41:23;96696.59;;;6.47;72.90
76050;BME280;64967;50.234;19.224;2023-03-14T02:43:50;96692.72;;;6.43;73.25
76050;BME280;64967;50.234;19.224;2023-03-14T02:46:19;96688.38;;;6.42;73.26
76050;BME280;64967;50.234;19.224;2023-03-14T02:48:54;96686.56;;;6.36;73.09
76050;BME280;64967;50.234;19.224;2023-03-14T02:51:25;96682.28;;;6.35;73.92
76050;BME280;64967;50.234;19.224;2023-03-14T02:53:52;96689.09;;;6.31;73.72
76050;BME280;64967;50.234;19.224;2023-03-14T02:56:19;96688.41;;;6.17;74.43
76050;BME280;64967;50.234;19.224;2023-03-14T02:58:46;96691.94;;;5.86;76.98
76050;BME280;64967;50.234;19.224;2023-03-14T03:01:13;96696.66;;;5.59;77.46
76050;BME280;64967;50.234;19.224;2023-03-14T03:03:41;96704.69;;;5.59;77.88
76050;BME280;64967;50.234;19.224;2023-03-14T03:06:08;96699.16;;;5.54;77.61
76050;BME280;64967;50.234;19.224;2023-03-14T03:08:35;96699.97;;;5.61;76.83
76050;BME280;64967;50.234;19.224;2023-03-14T03:11:03;96710.47;;;5.63;76.74
76050;BME280;64967;50.234;19.224;2023-03-14T03:13:30;96717.91;;;5.61;76.81
76050;BME280;64967;50.234;19.224;2023-03-14T03:15:57;96715.69;;;5.51;77.07
76050;BME280;64967;50.234;19.224;2023-03-14T03:18:24;96715.56;;;5.39;78.28
76050;BME280;64967;50.234;19.224;2023-03-14T03:20:52;96711.06;;;5.27;78.34
76050;BME280;64967;50.234;19.224;2023-03-14T03:23:19;96711.19;;;5.07;79.61
76050;BME280;64967;50.234;19.224;2023-03-14T03:25:50;96705.53;;;4.71;81.28
76050;BME280;64967;50.234;19.224;2023-03-14T03:28:19;96708.03;;;4.72;81.51
76050;BME280;64967;50.234;19.224;2023-03-14T03:30:46;96716.72;;;4.55;81.31
76050;BME280;64967;50.234;19.224;2023-03-14T03:33:13;96710.38;;;4.36;82.75
76050;BME280;64967;50.234;19.224;2023-03-14T03:35:45;96714.06;;;4.35;83.96
76050;BME280;64967;50.234;19.224;2023-03-14T03:38:14;96701.09;;;4.38;82.90
76050;BME280;64967;50.234;19.224;2023-03-14T03:40:42;96708.50;;;4.43;82.84
76050;BME280;64967;50.234;19.224;2023-03-14T03:43:09;96728.06;;;4.17;85.00
76050;BME280;64967;50.234;19.224;2023-03-14T03:45:36;96722.31;;;4.27;84.56
76050;BME280;64967;50.234;19.224;2023-03-14T03:48:03;96743.28;;;4.36;84.16
76050;BME280;64967;50.234;19.224;2023-03-14T03:50:31;96752.56;;;4.40;84.35
76050;BME280;64967;50.234;19.224;2023-03-14T03:52:57;96760.75;;;4.59;83.69
76050;BME280;64967;50.234;19.224;2023-03-14T03:55:25;96768.88;;;4.97;81.10
76050;BME280;64967;50.234;19.224;2023-03-14T03:57:54;96760.94;;;5.28;79.35
76050;BME280;64967;50.234;19.224;2023-03-14T04:00:21;96765.72;;;5.64;77.07
76050;BME280;64967;50.234;19.224;2023-03-14T04:02:50;96760.72;;;5.74;77.46
76050;BME280;64967;50.234;19.224;2023-03-14T04:05:17;96767.75;;;5.68;77.59
76050;BME280;64967;50.234;19.224;2023-03-14T04:07:44;96747.56;;;5.66;76.28
76050;BME280;64967;50.234;19.224;2023-03-14T04:10:11;96773.66;;;5.83;76.69
76050;BME280;64967;50.234;19.224;2023-03-14T04:12:38;96765.59;;;5.90;76.58
76050;BME280;64967;50.234;19.224;2023-03-14T04:15:06;96748.19;;;5.99;76.03
76050;BME280;64967;50.234;19.224;2023-03-14T04:17:33;96739.00;;;6.13;75.67
76050;BME280;64967;50.234;19.224;2023-03-14T04:20:00;96743.06;;;6.22;75.25
76050;BME280;64967;50.234;19.224;2023-03-14T04:22:28;96736.38;;;6.32;75.45
76050;BME280;64967;50.234;19.224;2023-03-14T04:24:55;96737.47;;;6.24;74.64
76050;BME280;64967;50.234;19.224;2023-03-14T04:27:22;96732.38;;;6.16;75.27
76050;BME280;64967;50.234;19.224;2023-03-14T04:29:49;96725.03;;;6.05;75.40
76050;BME280;64967;50.234;19.224;2023-03-14T04:32:16;96733.38;;;5.90;77.14
76050;BME280;64967;50.234;19.224;2023-03-14T04:34:43;96722.31;;;5.80;77.65
76050;BME280;64967;50.234;19.224;2023-03-14T04:37:10;96714.19;;;5.62;77.94
76050;BME280;64967;50.234;19.224;2023-03-14T04:39:38;96726.56;;;5.63;79.01
76050;BME280;64967;50.234;19.224;2023-03-14T04:42:09;96720.00;;;5.52;78.79
76050;BME280;64967;50.234;19.224;2023-03-14T04:44:42;96718.56;;;5.50;79.01
76050;BME280;64967;50.234;19.224;2023-03-14T04:47:17;96724.56;;;5.52;78.57
76050;BME280;64967;50.234;19.224;2023-03-14T04:49:44;96723.28;;;5.54;78.31
76050;BME280;64967;50.234;19.224;2023-03-14T04:52:13;96721.03;;;5.58;78.10
76050;BME280;64967;50.234;19.224;2023-03-14T04:54:41;96705.03;;;5.45;80.46
76050;BME280;64967;50.234;19.224;2023-03-14T04:57:08;96696.63;;;5.28;80.57
76050;BME280;64967;50.234;19.224;2023-03-14T04:59:35;96687.19;;;5.25;81.19
76050;BME280;64967;50.234;19.224;2023-03-14T05:02:02;96691.28;;;5.28;80.88
76050;BME280;64967;50.234;19.224;2023-03-14T05:04:29;96686.72;;;5.35;80.55
76050;BME280;64967;50.234;19.224;2023-03-14T05:06:59;96700.31;;;5.40;80.28
76050;BME280;64967;50.234;19.224;2023-03-14T05:09:27;96673.16;;;5.30;80.34
76050;BME280;64967;50.234;19.224;2023-03-14T05:11:54;96682.66;;;5.26;81.63
76050;BME280;64967;50.234;19.224;2023-03-14T05:14:21;96682.03;;;4.79;82.58
76050;BME280;64967;50.234;19.224;2023-03-14T05:16:48;96690.06;;;4.73;83.40
76050;BME280;64967;50.234;19.224;2023-03-14T05:19:15;96686.19;;;4.69;83.51
76050;BME280;64967;50.234;19.224;2023-03-14T05:21:42;96683.44;;;4.82;83.35
76050;BME280;64967;50.234;19.224;2023-03-14T05:24:09;96675.22;;;4.90;83.51
76050;BME280;64967;50.234;19.224;2023-03-14T05:26:36;96665.91;;;4.99;83.23
76050;BME280;64967;50.234;19.224;2023-03-14T05:29:03;96657.59;;;5.07;82.86
76050;BME280;64967;50.234;19.224;2023-03-14T05:31:30;96646.03;;;5.13;82.52
76050;BME280;64967;50.234;19.224;2023-03-14T05:33:57;96631.34;;;5.22;82.29
76050;BME280;64967;50.234;19.224;2023-03-14T05:36:24;96638.53;;;5.28;81.95
76050;BME280;64967;50.234;19.224;2023-03-14T05:38:51;96639.69;;;5.39;81.74
76050;BME280;64967;50.234;19.224;2023-03-14T05:41:18;96640.03;;;5.49;81.28
76050;BME280;64967;50.234;19.224;2023-03-14T05:43:44;96635.41;;;5.63;80.67
76050;BME280;64967;50.234;19.224;2023-03-14T05:46:11;96641.88;;;5.80;79.63
76050;BME280;64967;50.234;19.224;2023-03-14T05:48:38;96635.16;;;5.96;79.49
76050;BME280;64967;50.234;19.224;2023-03-14T05:51:06;96653.13;;;6.13;78.67
76050;BME280;64967;50.234;19.224;2023-03-14T05:53:33;96649.28;;;6.27;77.74
76050;BME280;64967;50.234;19.224;2023-03-14T05:56:00;96646.03;;;6.44;76.77
76050;BME280;64967;50.234;19.224;2023-03-14T05:58:27;96644.84;;;6.58;76.32
76050;BME280;64967;50.234;19.224;2023-03-14T06:00:54;96642.59;;;6.73;75.37
76050;BME280;64967;50.234;19.224;2023-03-14T06:03:21;96647.81;;;6.86;75.14
76050;BME280;64967;50.234;19.224;2023-03-14T06:05:51;96637.50;;;7.01;74.38
76050;BME280;64967;50.234;19.224;2023-03-14T06:08:18;96635.69;;;7.13;74.58
76050;BME280;64967;50.234;19.224;2023-03-14T06:10:45;96644.59;;;7.26;74.32
76050;BME280;64967;50.234;19.224;2023-03-14T06:13:12;96636.00;;;7.35;74.04
76050;BME280;64967;50.234;19.224;2023-03-14T06:15:39;96634.97;;;7.48;73.17
76050;BME280;64967;50.234;19.224;2023-03-14T06:18:06;96641.22;;;7.60;73.45
76050;BME280;64967;50.234;19.224;2023-03-14T06:20:36;96637.50;;;7.73;72.85
76050;BME280;64967;50.234;19.224;2023-03-14T06:23:08;96630.03;;;7.86;71.77
76050;BME280;64967;50.234;19.224;2023-03-14T06:25:35;96632.03;;;8.02;70.99
76050;BME280;64967;50.234;19.224;2023-03-14T06:28:04;96619.66;;;8.13;69.87
76050;BME280;64967;50.234;19.224;2023-03-14T06:30:31;96618.25;;;8.45;69.15
76050;BME280;64967;50.234;19.224;2023-03-14T06:32:58;96618.34;;;8.62;69.30
76050;BME280;64967;50.234;19.224;2023-03-14T06:35:25;96611.88;;;8.75;68.60
76050;BME280;64967;50.234;19.224;2023-03-14T06:37:52;96608.34;;;8.86;67.68
76050;BME280;64967;50.234;19.224;2023-03-14T06:40:19;96618.25;;;8.97;66.56
76050;BME280;64967;50.234;19.224;2023-03-14T06:42:46;96606.03;;;9.06;66.89
76050;BME280;64967;50.234;19.224;2023-03-14T06:45:14;96603.22;;;9.13;65.85
76050;BME280;64967;50.234;19.224;2023-03-14T06:47:41;96610.81;;;9.16;65.88
76050;BME280;64967;50.234;19.224;2023-03-14T06:50:09;96593.69;;;9.22;66.14
76050;BME280;64967;50.234;19.224;2023-03-14T06:52:36;96595.16;;;9.29;65.44
76050;BME280;64967;50.234;19.224;2023-03-14T06:55:04;96581.84;;;9.39;64.92
76050;BME280;64967;50.234;19.224;2023-03-14T06:57:31;96586.03;;;9.47;64.65
76050;BME280;64967;50.234;19.224;2023-03-14T06:59:58;96579.75;;;9.58;64.40
76050;BME280;64967;50.234;19.224;2023-03-14T07:02:25;96571.56;;;9.70;63.74
76050;BME280;64967;50.234;19.224;2023-03-14T07:05:07;96575.91;;;9.88;63.42
76050;BME280;64967;50.234;19.224;2023-03-14T07:07:36;96571.81;;;10.02;64.89
76050;BME280;64967;50.234;19.224;2023-03-14T07:10:04;96560.50;;;10.05;62.98
76050;BME280;64967;50.234;19.224;2023-03-14T07:12:31;96582.03;;;10.33;63.58
76050;BME280;64967;50.234;19.224;2023-03-14T07:14:58;96589.78;;;10.46;63.17
76050;BME280;64967;50.234;19.224;2023-03-14T07:17:42;96583.19;;;10.59;62.20
76050;BME280;64967;50.234;19.224;2023-03-14T07:20:10;96587.84;;;10.63;61.72
76050;BME280;64967;50.234;19.224;2023-03-14T07:22:37;96583.38;;;10.74;61.90
76050;BME280;64967;50.234;19.224;2023-03-14T07:25:04;96587.06;;;10.85;60.73
76050;BME280;64967;50.234;19.224;2023-03-14T07:27:31;96591.44;;;10.91;60.38
76050;BME280;64967;50.234;19.224;2023-03-14T07:29:58;96603.50;;;11.05;60.66
76050;BME280;64967;50.234;19.224;2023-03-14T07:32:25;96588.97;;;11.11;61.01
76050;BME280;64967;50.234;19.224;2023-03-14T07:34:55;96596.13;;;11.22;60.47
76050;BME280;64967;50.234;19.224;2023-03-14T07:37:23;96598.75;;;11.39;59.20
76050;BME280;64967;50.234;19.224;2023-03-14T07:39:50;96612.69;;;11.52;58.30
76050;BME280;64967;50.234;19.224;2023-03-14T07:42:17;96612.31;;;11.71;58.71
76050;BME280;64967;50.234;19.224;2023-03-14T07:44:43;96607.00;;;11.81;59.65
76050;BME280;64967;50.234;19.224;2023-03-14T07:47:11;96619.09;;;12.00;57.85
76050;BME280;64967;50.234;19.224;2023-03-14T07:49:38;96634.44;;;12.21;57.65
76050;BME280;64967;50.234;19.224;2023-03-14T07:52:05;96626.19;;;12.43;57.84
76050;BME280;64967;50.234;19.224;2023-03-14T07:54:32;96617.88;;;12.55;55.84
76050;BME280;64967;50.234;19.224;2023-03-14T07:56:59;96627.72;;;12.71;56.10
76050;BME280;64967;50.234;19.224;2023-03-14T07:59:27;96632.38;;;12.80;55.43
76050;BME280;64967;50.234;19.224;2023-03-14T08:01:54;96637.81;;;12.80;55.12
76050;BME280;64967;50.234;19.224;2023-03-14T08:04:21;96614.78;;;12.88;53.95
76050;BME280;64967;50.234;19.224;2023-03-14T08:06:48;96616.44;;;12.94;53.98
76050;BME280;64967;50.234;19.224;2023-03-14T08:09:15;96618.91;;;12.95;54.89
76050;BME280;64967;50.234;19.224;2023-03-14T08:11:42;96627.06;;;13.01;53.92
76050;BME280;64967;50.234;19.224;2023-03-14T08:14:09;96621.94;;;13.04;54.99
76050;BME280;64967;50.234;19.224;2023-03-14T08:16:37;96622.25;;;13.13;52.95
76050;BME280;64967;50.234;19.224;2023-03-14T08:19:04;96617.09;;;13.11;54.05
76050;BME280;64967;50.234;19.224;2023-03-14T08:21:31;96621.22;;;13.24;53.28
76050;BME280;64967;50.234;19.224;2023-03-14T08:23:58;96615.53;;;13.30;53.73
76050;BME280;64967;50.234;19.224;2023-03-14T08:26:25;96610.66;;;13.27;52.56
76050;BME280;64967;50.234;19.224;2023-03-14T08:28:55;96610.38;;;13.34;52.31
76050;BME280;64967;50.234;19.224;2023-03-14T08:31:22;96609.56;;;13.33;51.99
76050;BME280;64967;50.234;19.224;2023-03-14T08:33:49;96615.06;;;13.49;52.94
76050;BME280;64967;50.234;19.224;2023-03-14T08:36:19;96593.34;;;13.54;52.25
76050;BME280;64967;50.234;19.224;2023-03-14T08:38:49;96608.25;;;13.51;52.24
76050;BME280;64967;50.234;19.224;2023-03-14T08:41:16;96609.66;;;13.59;51.35
76050;BME280;64967;50.234;19.224;2023-03-14T08:43:43;96634.88;;;13.44;51.18
76050;BME280;64967;50.234;19.224;2023-03-14T08:46:10;96639.75;;;13.37;52.16
76050;BME280;64967;50.234;19.224;2023-03-14T08:48:37;96641.09;;;13.39;52.66
76050;BME280;64967;50.234;19.224;2023-03-14T08:51:09;96653.31;;;13.37;52.03
76050;BME280;64967;50.234;19.224;2023-03-14T08:53:37;96643.56;;;13.41;51.74
76050;BME280;64967;50.234;19.224;2023-03-14T08:56:04;96650.91;;;13.51;52.34
76050;BME280;64967;50.234;19.224;2023-03-14T08:58:33;96657.47;;;13.60;51.33
76050;BME280;64967;50.234;19.224;2023-03-14T09:01:00;96646.59;;;13.60;52.43
76050;BME280;64967;50.234;19.224;2023-03-14T09:03:27;96654.22;;;13.68;52.29
76050;BME280;64967;50.234;19.224;2023-03-14T09:05:55;96636.81;;;13.59;52.03
76050;BME280;64967;50.234;19.224;2023-03-14T09:08:21;96662.88;;;13.55;52.65
76050;BME280;64967;50.234;19.224;2023-03-14T09:10:48;96661.78;;;13.51;51.86
76050;BME280;64967;50.234;19.224;2023-03-14T09:13:15;96651.16;;;13.44;51.42
76050;BME280;64967;50.234;19.224;2023-03-14T09:15:42;96661.22;;;13.49;52.33
76050;BME280;64967;50.234;19.224;2023-03-14T09:18:09;96664.19;;;13.47;53.48
76050;BME280;64967;50.234;19.224;2023-03-14T09:20:36;96669.09;;;13.60;52.76
76050;BME280;64967;50.234;19.224;2023-03-14T09:23:03;96670.44;;;13.53;52.38
76050;BME280;64967;50.234;19.224;2023-03-14T09:25:30;96677.53;;;13.59;52.79
76050;BME280;64967;50.234;19.224;2023-03-14T09:27:57;96678.09;;;13.66;52.58
76050;BME280;64967;50.234;19.224;2023-03-14T09:30:24;96685.69;;;13.59;53.16
76050;BME280;64967;50.234;19.224;2023-03-14T09:32:51;96683.47;;;13.56;52.82
76050;BME280;64967;50.234;19.224;2023-03-14T09:35:18;96679.88;;;13.30;52.77
76050;BME280;64967;50.234;19.224;2023-03-14T09:37:45;96668.16;;;13.24;53.50
76050;BME280;64967;50.234;19.224;2023-03-14T09:40:14;96661.16;;;13.33;52.88
76050;BME280;64967;50.234;19.224;2023-03-14T09:42:43;96669.84;;;13.35;52.77
76050;BME280;64967;50.234;19.224;2023-03-14T09:45:15;96659.34;;;13.59;53.98
76050;BME280;64967;50.234;19.224;2023-03-14T09:47:47;96656.13;;;13.72;52.23
76050;BME280;64967;50.234;19.224;2023-03-14T09:50:26;96667.00;;;13.93;52.47
76050;BME280;64967;50.234;19.224;2023-03-14T09:53:00;96665.16;;;14.13;51.59
76050;BME280;64967;50.234;19.224;2023-03-14T09:55:28;96668.41;;;14.30;52.65
76050;BME280;64967;50.234;19.224;2023-03-14T09:58:02;96667.63;;;14.40;50.91
76050;BME280;64967;50.234;19.224;2023-03-14T10:00:31;96673.88;;;14.41;50.99
76050;BME280;64967;50.234;19.224;2023-03-14T10:05:41;96659.69;;;14.69;51.18
76050;BME280;64967;50.234;19.224;2023-03-14T10:08:13;96671.13;;;14.81;50.09
76050;BME280;64967;50.234;19.224;2023-03-14T10:10:40;96670.00;;;14.87;50.99
76050;BME280;64967;50.234;19.224;2023-03-14T10:13:26;96691.25;;;14.70;49.86
76050;BME280;64967;50.234;19.224;2023-03-14T10:16:03;96682.59;;;14.63;50.75
76050;BME280;64967;50.234;19.224;2023-03-14T10:18:32;96659.47;;;14.45;50.47
76050;BME280;64967;50.234;19.224;2023-03-14T10:21:07;96690.72;;;14.73;50.81
76050;BME280;64967;50.234;19.224;2023-03-14T10:23:42;96701.88;;;14.71;49.98
76050;BME280;64967;50.234;19.224;2023-03-14T10:26:15;96702.97;;;14.55;50.83
76050;BME280;64967;50.234;19.224;2023-03-14T10:28:52;96704.34;;;14.53;51.05
76050;BME280;64967;50.234;19.224;2023-03-14T10:31:24;96701.06;;;14.61;51.87
76050;BME280;64967;50.234;19.224;2023-03-14T10:34:04;96697.00;;;14.58;51.99
76050;BME280;64967;50.234;19.224;2023-03-14T10:36:32;96698.34;;;14.56;52.21
76050;BME280;64967;50.234;19.224;2023-03-14T10:41:54;96697.75;;;14.28;52.15
76050;BME280;64967;50.234;19.224;2023-03-14T10:44:25;96697.47;;;14.15;52.55
76050;BME280;64967;50.234;19.224;2023-03-14T10:46:58;96697.19;;;14.01;53.48
76050;BME280;64967;50.234;19.224;2023-03-14T10:49:34;96693.94;;;13.99;53.28
76050;BME280;64967;50.234;19.224;2023-03-14T10:52:14;96676.75;;;13.78;53.35
76050;BME280;64967;50.234;19.224;2023-03-14T10:54:46;96679.47;;;13.63;55.09
76050;BME280;64967;50.234;19.224;2023-03-14T10:57:14;96678.06;;;13.61;54.94
76050;BME280;64967;50.234;19.224;2023-03-14T10:59:43;96688.94;;;13.66;55.06
76050;BME280;64967;50.234;19.224;2023-03-14T11:02:19;96671.03;;;13.65;55.02
76050;BME280;64967;50.234;19.224;2023-03-14T11:07:44;96664.22;;;13.57;54.34
76050;BME280;64967;50.234;19.224;2023-03-14T11:13:04;96672.09;;;13.59;54.65
76050;BME280;64967;50.234;19.224;2023-03-14T11:16:14;96655.78;;;13.54;54.54
76050;BME280;64967;50.234;19.224;2023-03-14T11:19:03;96664.97;;;13.37;55.73
76050;BME280;64967;50.234;19.224;2023-03-14T11:21:55;96670.38;;;13.37;56.27
76050;BME280;64967;50.234;19.224;2023-03-14T11:24:33;96665.72;;;13.18;56.98
76050;BME280;64967;50.234;19.224;2023-03-14T11:32:36;96662.31;;;12.95;57.20
76050;BME280;64967;50.234;19.224;2023-03-14T11:35:20;96656.53;;;12.82;58.11
76050;BME280;64967;50.234;19.224;2023-03-14T11:37:54;96670.56;;;12.69;58.83
76050;BME280;64967;50.234;19.224;2023-03-14T11:40:26;96668.81;;;12.52;59.71
76050;BME280;64967;50.234;19.224;2023-03-14T11:43:05;96665.59;;;12.56;60.36
76050;BME280;64967;50.234;19.224;2023-03-14T11:45:38;96674.84;;;12.60;59.58
76050;BME280;64967;50.234;19.224;2023-03-14T11:48:16;96675.88;;;12.53;60.82
76050;BME280;64967;50.234;19.224;2023-03-14T11:50:49;96672.63;;;12.51;60.34
76050;BME280;64967;50.234;19.224;2023-03-14T11:53:40;96675.59;;;12.50;61.56
76050;BME280;64967;50.234;19.224;2023-03-14T11:56:27;96677.84;;;12.26;60.99
76050;BME280;64967;50.234;19.224;2023-03-14T11:59:05;96672.72;;;12.30;60.87
76050;BME280;64967;50.234;19.224;2023-03-14T12:01:44;96668.75;;;12.42;60.43
76050;BME280;64967;50.234;19.224;2023-03-14T12:04:26;96656.88;;;12.48;59.64
76050;BME280;64967;50.234;19.224;2023-03-14T12:07:01;96655.09;;;12.64;59.55
76050;BME280;64967;50.234;19.224;2023-03-14T12:09:30;96659.06;;;12.57;59.75
76050;BME280;64967;50.234;19.224;2023-03-14T12:12:00;96653.72;;;12.67;60.06
76050;BME280;64967;50.234;19.224;2023-03-14T12:14:34;96646.66;;;12.66;58.76
76050;BME280;64967;50.234;19.224;2023-03-14T12:17:18;96649.25;;;12.45;59.18
76050;BME280;64967;50.234;19.224;2023-03-14T12:19:47;96631.44;;;12.55;60.09
76050;BME280;64967;50.234;19.224;2023-03-14T12:22:34;96646.63;;;12.56;59.95
76050;BME280;64967;50.234;19.224;2023-03-14T12:25:23;96638.72;;;12.49;59.88
76050;BME280;64967;50.234;19.224;2023-03-14T12:30:36;96643.44;;;12.69;58.99
76050;BME280;64967;50.234;19.224;2023-03-14T12:35:44;96636.97;;;12.70;59.75
76050;BME280;64967;50.234;19.224;2023-03-14T12:38:23;96640.97;;;12.62;60.26
76050;BME280;64967;50.234;19.224;2023-03-14T12:41:11;96647.22;;;12.68;59.83
76050;BME280;64967;50.234;19.224;2023-03-14T12:43:41;96647.16;;;12.58;59.66
76050;BME280;64967;50.234;19.224;2023-03-14T12:49:05;96652.50;;;12.42;59.72
76050;BME280;64967;50.234;19.224;2023-03-14T12:59:22;96637.84;;;12.06;61.24
76050;BME280;64967;50.234;19.224;2023-03-14T13:04:44;96639.28;;;12.14;62.30
76050;BME280;64967;50.234;19.224;2023-03-14T13:07:28;96641.34;;;12.02;62.80
76050;BME280;64967;50.234;19.224;2023-03-14T13:12:43;96642.31;;;11.91;63.98
76050;BME280;64967;50.234;19.224;2023-03-14T13:15:27;96642.84;;;11.88;63.39
76050;BME280;64967;50.234;19.224;2023-03-14T13:18:07;96654.16;;;11.85;64.44
76050;BME280;64967;50.234;19.224;2023-03-14T13:20:38;96648.69;;;11.75;65.61
76050;BME280;64967;50.234;19.224;2023-03-14T13:23:26;96654.34;;;11.73;65.89
76050;BME280;64967;50.234;19.224;2023-03-14T13:25:54;96667.53;;;11.70;65.94
76050;BME280;64967;50.234;19.224;2023-03-14T13:28:22;96657.31;;;11.50;67.70
76050;BME280;64967;50.234;19.224;2023-03-14T13:30:54;96664.66;;;11.54;67.31
76050;BME280;64967;50.234;19.224;2023-03-14T13:33:22;96667.38;;;11.54;67.43
76050;BME280;64967;50.234;19.224;2023-03-14T13:36:02;96666.25;;;11.50;67.83
76050;BME280;64967;50.234;19.224;2023-03-14T13:38:35;96678.72;;;11.51;67.96
76050;BME280;64967;50.234;19.224;2023-03-14T13:41:06;96676.56;;;11.53;68.47
76050;BME280;64967;50.234;19.224;2023-03-14T13:43:44;96691.19;;;11.52;69.05
76050;BME280;64967;50.234;19.224;2023-03-14T13:46:21;96703.84;;;11.47;69.54
76050;BME280;64967;50.234;19.224;2023-03-14T13:48:52;96695.41;;;11.43;69.14
76050;BME280;64967;50.234;19.224;2023-03-14T13:51:20;96698.91;;;11.44;69.81
76050;BME280;64967;50.234;19.224;2023-03-14T13:53:50;96694.00;;;11.41;70.34
76050;BME280;64967;50.234;19.224;2023-03-14T13:56:22;96697.41;;;11.31;71.31